Time;durP1;ratioP1;P1;durP2;ratioP2;P2;SDS_P1;SDS_P2;PMS_P1;PMS_P2;Temp;Humidity;BMP_temperature;BMP_pressure;BME280_temperature;BME280_humidity;BME280_pressure;Samples;Min_cycle;Max_cycle;Signal;HPM_P1;HPM_P2
2022/02/20 00:01:10;;;;;;;1.05;0.13;;;;;;;;;;5018364;28;20479;-54
2022/02/20 00:03:35;;;;;;;0.50;0.10;;;;;;;;;;5017251;28;20033;-54
2022/02/20 00:06:01;;;;;;;0.22;0.03;;;;;;;;;;5027188;28;20025;-54
2022/02/20 00:08:26;;;;;;;0.70;0.10;;;;;;;;;;5022466;28;20033;-53
2022/02/20 00:10:51;;;;;;;0.97;0.10;;;;;;;;;;5029774;28;20368;-50
2022/02/20 00:13:17;;;;;;;0.43;0.10;;;;;;;;;;5031934;28;20249;-55
2022/02/20 00:15:43;;;;;;;0.35;0.10;;;;;;;;;;5029123;28;20031;-53
2022/02/20 00:18:08;;;;;;;0.55;0.10;;;;;;;;;;5021916;28;20010;-50
2022/02/20 00:20:33;;;;;;;0.43;0.03;;;;;;;;;;5024466;28;20081;-52
2022/02/20 00:23:00;;;;;;;0.75;0.10;;;;;;;;;;5019553;28;20079;-53
2022/02/20 00:25:26;;;;;;;0.82;0.10;;;;;;;;;;5024740;28;20034;-51
2022/02/20 00:27:51;;;;;;;0.82;0.22;;;;;;;;;;5023686;28;20033;-52
2022/02/20 00:30:17;;;;;;;0.83;0.10;;;;;;;;;;5025020;28;20542;-54
2022/02/20 00:32:42;;;;;;;0.93;0.10;;;;;;;;;;5025777;28;20283;-52
2022/02/20 00:35:08;;;;;;;0.85;0.08;;;;;;;;;;5025715;28;20028;-53
2022/02/20 00:37:33;;;;;;;0.82;0.10;;;;;;;;;;5024092;28;20021;-52
2022/02/20 00:39:58;;;;;;;0.93;0.10;;;;;;;;;;5038451;28;20040;-50
2022/02/20 00:42:23;;;;;;;0.38;0.10;;;;;;;;;;5029996;28;20299;-54
2022/02/20 00:44:48;;;;;;;0.63;0.10;;;;;;;;;;5031065;28;20144;-54
2022/02/20 00:47:14;;;;;;;0.85;0.10;;;;;;;;;;5027736;28;20080;-53
2022/02/20 00:49:39;;;;;;;1.07;0.10;;;;;;;;;;5033618;28;20029;-51
2022/02/20 00:52:05;;;;;;;0.20;0.00;;;;;;;;;;5015226;28;20368;-55
2022/02/20 00:54:30;;;;;;;0.35;0.10;;;;;;;;;;5020144;28;20128;-55
2022/02/20 00:56:55;;;;;;;1.23;0.00;;;;;;;;;;5015669;28;20505;-53
2022/02/20 00:59:20;;;;;;;0.57;0.00;;;;;;;;;;5027714;28;20037;-55
2022/02/20 01:01:46;;;;;;;0.30;0.10;;;;;;;;;;5029519;28;20280;-54
2022/02/20 01:04:11;;;;;;;0.65;0.00;;;;;;;;;;5029607;28;20367;-51
2022/02/20 01:06:36;;;;;;;0.10;0.00;;;;;;;;;;5021633;28;20036;-54
2022/02/20 01:09:01;;;;;;;0.37;0.10;;;;;;;;;;5019762;28;20535;-53
2022/02/20 01:11:27;;;;;;;0.43;0.10;;;;;;;;;;5031708;28;20260;-52
2022/02/20 01:13:52;;;;;;;0.30;0.10;;;;;;;;;;5024007;28;20429;-51
2022/02/20 01:16:18;;;;;;;0.50;0.10;;;;;;;;;;5019559;28;20029;-53
2022/02/20 01:18:43;;;;;;;0.30;0.00;;;;;;;;;;5016789;28;20041;-54
2022/02/20 01:21:09;;;;;;;0.40;0.10;;;;;;;;;;5011834;28;20034;-55
2022/02/20 01:23:34;;;;;;;0.10;0.00;;;;;;;;;;5013039;28;20037;-52
2022/02/20 01:25:59;;;;;;;0.22;0.10;;;;;;;;;;5028149;28;20486;-52
2022/02/20 01:28:24;;;;;;;0.10;0.00;;;;;;;;;;5015303;28;20478;-53
2022/02/20 01:30:50;;;;;;;0.30;0.10;;;;;;;;;;5020633;28;20048;-55
2022/02/20 01:33:17;;;;;;;0.00;0.00;;;;;;;;;;5012108;28;20022;-50
2022/02/20 01:35:42;;;;;;;0.20;0.00;;;;;;;;;;5029403;28;20028;-54
2022/02/20 01:38:07;;;;;;;0.20;0.00;;;;;;;;;;5027088;28;20021;-49
2022/02/20 01:40:33;;;;;;;0.30;0.00;;;;;;;;;;5019976;28;20040;-53
2022/02/20 01:42:58;;;;;;;0.20;0.00;;;;;;;;;;5031242;28;20025;-54
2022/02/20 01:45:24;;;;;;;0.20;0.00;;;;;;;;;;5021242;28;20029;-52
2022/02/20 01:47:49;;;;;;;0.30;0.10;;;;;;;;;;5017904;28;20030;-54
2022/02/20 01:50:16;;;;;;;0.20;0.00;;;;;;;;;;5025570;28;20037;-53
2022/02/20 01:52:42;;;;;;;0.20;0.10;;;;;;;;;;5017250;28;20022;-51
2022/02/20 01:55:07;;;;;;;0.30;0.00;;;;;;;;;;5027683;28;20060;-52
2022/02/20 01:57:33;;;;;;;0.22;0.00;;;;;;;;;;5024919;28;20022;-52
2022/02/20 02:00:00;;;;;;;0.30;0.00;;;;;;;;;;5033294;28;20533;-54
2022/02/20 02:02:26;;;;;;;0.20;0.00;;;;;;;;;;5028883;28;20053;-55
2022/02/20 02:04:51;;;;;;;0.10;0.00;;;;;;;;;;5029656;28;20398;-49
2022/02/20 02:07:16;;;;;;;0.32;0.00;;;;;;;;;;5031425;28;20292;-52
2022/02/20 02:09:42;;;;;;;0.40;0.10;;;;;;;;;;5029155;28;20125;-50
2022/02/20 02:12:07;;;;;;;0.10;0.00;;;;;;;;;;5018353;28;20071;-49
2022/02/20 02:14:50;;;;;;;0.17;0.03;;;;;;;;;;5042932;28;20457;-49
2022/02/20 02:17:15;;;;;;;0.20;0.05;;;;;;;;;;5028503;28;20026;-52
2022/02/20 02:19:40;;;;;;;0.20;0.10;;;;;;;;;;5029607;28;20034;-52
2022/02/20 02:22:05;;;;;;;0.70;0.00;;;;;;;;;;5026929;28;20276;-52
2022/02/20 02:24:31;;;;;;;0.13;0.00;;;;;;;;;;5021874;28;20811;-54
2022/02/20 02:26:56;;;;;;;0.00;0.00;;;;;;;;;;5023172;28;20478;-52
2022/02/20 02:29:21;;;;;;;0.27;0.03;;;;;;;;;;5033117;28;20029;-53
2022/02/20 02:31:47;;;;;;;0.10;0.00;;;;;;;;;;5016320;28;20308;-53
2022/02/20 02:34:12;;;;;;;0.10;0.00;;;;;;;;;;5026054;28;20056;-57
2022/02/20 02:36:37;;;;;;;0.30;0.00;;;;;;;;;;5033353;28;20030;-53
2022/02/20 02:39:02;;;;;;;0.20;0.00;;;;;;;;;;5031195;28;20113;-54
2022/02/20 02:41:29;;;;;;;0.13;0.00;;;;;;;;;;5030054;28;20268;-53
2022/02/20 02:43:54;;;;;;;0.35;0.00;;;;;;;;;;5032134;28;20049;-54
2022/02/20 02:46:20;;;;;;;0.20;0.03;;;;;;;;;;5033341;28;20397;-55
2022/02/20 02:48:48;;;;;;;0.30;0.00;;;;;;;;;;5033118;28;20071;-52
2022/02/20 02:51:13;;;;;;;0.73;0.00;;;;;;;;;;5027864;28;20097;-55
2022/02/20 02:53:38;;;;;;;0.50;0.10;;;;;;;;;;5021844;28;20175;-55
2022/02/20 02:56:03;;;;;;;0.47;0.00;;;;;;;;;;5030950;28;20054;-54
2022/02/20 02:58:29;;;;;;;0.00;0.00;;;;;;;;;;5020543;28;20020;-54
2022/02/20 03:00:54;;;;;;;0.10;0.00;;;;;;;;;;5028176;28;20079;-51
2022/02/20 03:03:19;;;;;;;0.20;0.00;;;;;;;;;;5014689;28;20371;-50
2022/02/20 03:05:44;;;;;;;0.30;0.10;;;;;;;;;;5028917;28;20032;-54
2022/02/20 03:08:10;;;;;;;0.10;0.00;;;;;;;;;;5030593;28;20272;-53
2022/02/20 03:10:35;;;;;;;0.52;0.00;;;;;;;;;;5029987;28;20033;-54
2022/02/20 03:13:01;;;;;;;0.17;0.10;;;;;;;;;;5022838;28;20065;-53
2022/02/20 03:15:26;;;;;;;0.60;0.00;;;;;;;;;;5030616;28;20422;-51
2022/02/20 03:17:51;;;;;;;0.35;0.00;;;;;;;;;;5024648;28;20026;-53
2022/02/20 03:20:16;;;;;;;0.60;0.10;;;;;;;;;;5030785;28;20037;-54
2022/02/20 03:22:42;;;;;;;0.20;0.10;;;;;;;;;;5028173;28;20346;-54
2022/02/20 03:25:07;;;;;;;0.13;0.00;;;;;;;;;;5021817;28;20072;-54
2022/02/20 03:27:33;;;;;;;0.10;0.00;;;;;;;;;;5020673;28;20470;-52
2022/02/20 03:29:58;;;;;;;0.52;0.00;;;;;;;;;;5029286;28;20044;-51
2022/02/20 03:32:23;;;;;;;0.63;0.10;;;;;;;;;;5031539;28;20017;-54
2022/02/20 03:34:49;;;;;;;0.20;0.10;;;;;;;;;;5031982;28;20029;-52
2022/02/20 03:37:14;;;;;;;0.40;0.03;;;;;;;;;;5032275;28;20028;-53
2022/02/20 03:39:39;;;;;;;0.17;0.10;;;;;;;;;;5030582;28;20036;-53
2022/02/20 03:42:04;;;;;;;0.20;0.00;;;;;;;;;;5031576;28;20772;-53
2022/02/20 03:44:29;;;;;;;0.30;0.00;;;;;;;;;;5040550;28;20307;-51
2022/02/20 03:46:54;;;;;;;0.17;0.10;;;;;;;;;;5031633;28;20022;-53
2022/02/20 03:49:20;;;;;;;0.10;0.10;;;;;;;;;;5029806;28;20516;-53
2022/02/20 03:51:45;;;;;;;0.22;0.00;;;;;;;;;;5018422;28;20272;-53
2022/02/20 03:54:11;;;;;;;0.37;0.00;;;;;;;;;;5019843;28;20149;-53
2022/02/20 03:56:36;;;;;;;0.15;0.00;;;;;;;;;;5016096;28;20646;-52
2022/02/20 03:59:01;;;;;;;0.13;0.08;;;;;;;;;;5024141;28;20041;-54
2022/02/20 04:01:26;;;;;;;0.60;0.10;;;;;;;;;;5033649;28;20032;-55
2022/02/20 04:03:51;;;;;;;0.52;0.10;;;;;;;;;;5027682;28;20056;-54
2022/02/20 04:06:17;;;;;;;0.60;0.00;;;;;;;;;;5021590;28;20067;-52
2022/02/20 04:08:42;;;;;;;0.38;0.00;;;;;;;;;;5028917;28;20287;-52
2022/02/20 04:11:07;;;;;;;0.28;0.20;;;;;;;;;;5043676;28;20022;-53
2022/02/20 04:13:32;;;;;;;0.68;0.00;;;;;;;;;;5032849;28;20036;-49
2022/02/20 04:15:58;;;;;;;0.65;0.00;;;;;;;;;;5018966;28;20474;-53
2022/02/20 04:18:23;;;;;;;0.25;0.10;;;;;;;;;;5042503;28;20017;-52
2022/02/20 04:20:48;;;;;;;0.38;0.10;;;;;;;;;;5031629;28;20063;-50
2022/02/20 04:23:13;;;;;;;0.43;0.00;;;;;;;;;;5021601;28;20040;-54
2022/02/20 04:25:39;;;;;;;0.17;0.00;;;;;;;;;;5018195;28;20026;-54
2022/02/20 04:28:04;;;;;;;0.20;0.10;;;;;;;;;;5029129;28;20040;-54
2022/02/20 04:30:29;;;;;;;0.77;0.00;;;;;;;;;;5012103;28;20281;-54
2022/02/20 04:32:54;;;;;;;0.40;0.10;;;;;;;;;;5025250;28;20394;-53
2022/02/20 04:35:20;;;;;;;0.30;0.00;;;;;;;;;;5031168;28;20018;-52
2022/02/20 04:37:45;;;;;;;0.70;0.00;;;;;;;;;;5029154;28;20425;-53
2022/02/20 04:40:10;;;;;;;0.90;0.20;;;;;;;;;;5028418;28;20303;-52
2022/02/20 04:42:35;;;;;;;0.30;0.00;;;;;;;;;;5024060;28;20283;-49
2022/02/20 04:45:01;;;;;;;0.73;0.00;;;;;;;;;;5029912;28;20512;-54
2022/02/20 04:47:27;;;;;;;0.73;0.10;;;;;;;;;;5024454;28;20295;-54
2022/02/20 04:49:53;;;;;;;0.45;0.10;;;;;;;;;;5021259;28;20025;-54
2022/02/20 04:52:18;;;;;;;0.25;0.00;;;;;;;;;;5022351;28;20502;-54
2022/02/20 04:54:43;;;;;;;0.40;0.00;;;;;;;;;;5017913;28;20046;-51
2022/02/20 04:57:08;;;;;;;0.55;0.10;;;;;;;;;;5027066;28;20034;-52
2022/02/20 04:59:33;;;;;;;0.43;0.10;;;;;;;;;;5030520;28;20025;-53
2022/02/20 05:01:59;;;;;;;0.20;0.10;;;;;;;;;;5030242;28;20028;-54
2022/02/20 05:04:24;;;;;;;0.57;0.10;;;;;;;;;;5037803;28;20080;-49
2022/02/20 05:06:49;;;;;;;0.30;0.08;;;;;;;;;;5021814;28;20303;-52
2022/02/20 05:09:14;;;;;;;0.10;0.10;;;;;;;;;;5028064;28;20025;-52
2022/02/20 05:11:40;;;;;;;0.15;0.00;;;;;;;;;;5028482;28;20367;-50
2022/02/20 05:14:05;;;;;;;0.10;0.00;;;;;;;;;;5029169;28;20068;-54
2022/02/20 05:16:30;;;;;;;0.17;0.10;;;;;;;;;;5026062;28;20029;-53
2022/02/20 05:18:56;;;;;;;0.43;0.00;;;;;;;;;;5014576;28;20274;-53
2022/02/20 05:21:22;;;;;;;0.50;0.00;;;;;;;;;;5015542;28;20022;-53
2022/02/20 05:23:47;;;;;;;0.90;0.00;;;;;;;;;;5020959;28;20075;-52
2022/02/20 05:26:15;;;;;;;0.20;0.10;;;;;;;;;;5025725;28;20367;-54
2022/02/20 05:28:40;;;;;;;0.57;0.08;;;;;;;;;;5031982;28;20022;-54
2022/02/20 05:31:06;;;;;;;0.17;0.00;;;;;;;;;;5033242;28;20032;-55
2022/02/20 05:33:31;;;;;;;0.88;0.10;;;;;;;;;;5033645;28;20026;-50
2022/02/20 05:35:56;;;;;;;0.73;0.30;;;;;;;;;;5037514;28;20482;-53
2022/02/20 05:38:21;;;;;;;0.55;0.08;;;;;;;;;;5039186;28;20282;-53
2022/02/20 05:40:46;;;;;;;0.52;0.10;;;;;;;;;;5039948;28;20029;-54
2022/02/20 05:43:13;;;;;;;0.50;0.10;;;;;;;;;;5022347;28;20029;-55
2022/02/20 05:45:38;;;;;;;0.30;0.10;;;;;;;;;;5016917;28;20029;-51
2022/02/20 05:48:03;;;;;;;0.20;0.10;;;;;;;;;;5031195;28;20028;-51
2022/02/20 05:50:29;;;;;;;0.63;0.10;;;;;;;;;;5033094;28;20508;-55
2022/02/20 05:52:54;;;;;;;0.30;0.00;;;;;;;;;;5028326;28;20037;-53
2022/02/20 05:55:19;;;;;;;0.50;0.00;;;;;;;;;;5024147;28;20087;-51
2022/02/20 05:57:45;;;;;;;0.17;0.03;;;;;;;;;;5027946;28;20075;-54
2022/02/20 06:00:11;;;;;;;0.93;0.30;;;;;;;;;;5035449;28;20473;-54
2022/02/20 06:02:37;;;;;;;0.30;0.00;;;;;;;;;;5019411;28;20030;-53
2022/02/20 06:05:02;;;;;;;0.00;0.00;;;;;;;;;;5039862;28;20044;-51
2022/02/20 06:07:27;;;;;;;0.63;0.10;;;;;;;;;;5028915;28;20084;-52
2022/02/20 06:09:52;;;;;;;0.40;0.20;;;;;;;;;;5031061;28;20087;-54
2022/02/20 06:12:17;;;;;;;0.10;0.00;;;;;;;;;;5034481;28;20449;-50
2022/02/20 06:14:43;;;;;;;0.30;0.10;;;;;;;;;;5026555;28;20363;-52
2022/02/20 06:17:08;;;;;;;0.60;0.00;;;;;;;;;;5032203;28;20028;-53
2022/02/20 06:19:33;;;;;;;0.77;0.10;;;;;;;;;;5032750;28;20284;-52
2022/02/20 06:21:58;;;;;;;0.30;0.10;;;;;;;;;;5024798;28;20382;-53
2022/02/20 06:24:23;;;;;;;0.50;0.00;;;;;;;;;;5034191;28;20269;-53
2022/02/20 06:26:48;;;;;;;0.63;0.10;;;;;;;;;;5023554;28;20645;-53
2022/02/20 06:29:14;;;;;;;0.67;0.10;;;;;;;;;;5029225;28;20343;-51
2022/02/20 06:31:40;;;;;;;0.30;0.10;;;;;;;;;;5027876;28;20280;-54
2022/02/20 06:34:05;;;;;;;0.38;0.10;;;;;;;;;;5041070;28;20029;-50
2022/02/20 06:36:31;;;;;;;0.10;0.07;;;;;;;;;;5033714;28;20095;-52
2022/02/20 06:38:56;;;;;;;0.28;0.00;;;;;;;;;;5032984;28;20804;-53
2022/02/20 06:41:21;;;;;;;0.30;0.00;;;;;;;;;;5028386;28;20125;-54
2022/02/20 06:43:46;;;;;;;0.20;0.00;;;;;;;;;;5036353;28;20572;-52
2022/02/20 06:46:11;;;;;;;0.10;0.00;;;;;;;;;;5021040;28;20033;-54
2022/02/20 06:48:37;;;;;;;0.37;0.00;;;;;;;;;;5045393;28;20041;-51
2022/02/20 06:51:02;;;;;;;0.30;0.20;;;;;;;;;;5032951;28;20359;-54
2022/02/20 06:53:27;;;;;;;0.80;0.10;;;;;;;;;;5015398;28;20269;-54
2022/02/20 06:55:52;;;;;;;0.32;0.00;;;;;;;;;;5027542;28;20649;-56
2022/02/20 06:58:17;;;;;;;0.20;0.00;;;;;;;;;;5028154;28;20040;-54
2022/02/20 07:00:43;;;;;;;0.37;0.10;;;;;;;;;;5032113;28;20041;-53
2022/02/20 07:03:08;;;;;;;0.40;0.10;;;;;;;;;;5035878;28;20359;-52
2022/02/20 07:05:33;;;;;;;0.20;0.10;;;;;;;;;;5032688;28;20328;-52
2022/02/20 07:07:59;;;;;;;0.50;0.10;;;;;;;;;;5040527;28;20487;-53
2022/02/20 07:10:24;;;;;;;0.22;0.10;;;;;;;;;;5021159;28;20088;-52
2022/02/20 07:12:49;;;;;;;0.85;0.10;;;;;;;;;;5029846;28;20020;-53
2022/02/20 07:15:15;;;;;;;0.35;0.10;;;;;;;;;;5045098;28;20025;-54
2022/02/20 07:17:40;;;;;;;0.30;0.00;;;;;;;;;;5023638;28;20025;-49
2022/02/20 07:20:06;;;;;;;1.50;0.17;;;;;;;;;;5013530;28;20069;-51
2022/02/20 07:22:32;;;;;;;1.23;0.10;;;;;;;;;;5017841;28;20030;-47
2022/02/20 07:24:57;;;;;;;2.35;0.10;;;;;;;;;;5012749;28;20025;-45
2022/02/20 07:27:23;;;;;;;0.30;0.10;;;;;;;;;;5023606;28;20021;-46
2022/02/20 07:29:48;;;;;;;1.55;0.25;;;;;;;;;;5027816;28;20036;-46
2022/02/20 07:32:13;;;;;;;1.27;0.10;;;;;;;;;;5025472;28;20026;-48
2022/02/20 07:34:38;;;;;;;0.93;0.10;;;;;;;;;;5013138;28;20018;-49
2022/02/20 07:37:03;;;;;;;0.10;0.00;;;;;;;;;;5031893;28;20268;-46
2022/02/20 07:39:29;;;;;;;0.10;0.10;;;;;;;;;;5029626;28;20597;-47
2022/02/20 07:41:56;;;;;;;0.60;0.10;;;;;;;;;;5031503;28;20276;-48
2022/02/20 07:44:21;;;;;;;0.68;0.10;;;;;;;;;;5019461;28;20026;-45
2022/02/20 07:46:46;;;;;;;0.20;0.00;;;;;;;;;;5042981;28;20083;-47
2022/02/20 07:49:12;;;;;;;0.45;0.10;;;;;;;;;;5033736;28;20059;-49
2022/02/20 07:51:37;;;;;;;0.63;0.00;;;;;;;;;;5038179;28;20033;-43
2022/02/20 07:54:02;;;;;;;0.43;0.00;;;;;;;;;;5031603;28;20021;-50
2022/02/20 07:56:27;;;;;;;0.45;0.03;;;;;;;;;;5030594;28;20049;-47
2022/02/20 07:58:53;;;;;;;0.10;0.10;;;;;;;;;;5032811;28;20029;-47
2022/02/20 08:01:18;;;;;;;0.10;0.00;;;;;;;;;;5041512;28;20331;-49
2022/02/20 08:03:43;;;;;;;0.63;0.05;;;;;;;;;;5032806;28;20072;-47
2022/02/20 08:06:08;;;;;;;0.27;0.00;;;;;;;;;;5035034;28;20036;-45
2022/02/20 08:08:34;;;;;;;0.15;0.00;;;;;;;;;;5050224;28;20360;-48
2022/02/20 08:11:00;;;;;;;2.40;0.20;;;;;;;;;;5031365;28;20091;-45
2022/02/20 08:13:25;;;;;;;0.30;0.10;;;;;;;;;;5026864;28;20124;-47
2022/02/20 08:15:51;;;;;;;0.40;0.00;;;;;;;;;;5018505;28;20104;-43
2022/02/20 08:18:17;;;;;;;0.80;0.10;;;;;;;;;;5029961;28;20029;-45
2022/02/20 08:20:44;;;;;;;0.32;0.28;;;;;;;;;;5021021;28;20025;-44
2022/02/20 08:23:09;;;;;;;0.80;0.17;;;;;;;;;;5018994;28;20131;-43
2022/02/20 08:25:35;;;;;;;1.55;0.10;;;;;;;;;;5013798;28;20482;-46
2022/02/20 08:28:00;;;;;;;0.60;0.10;;;;;;;;;;5022189;28;20386;-45
2022/02/20 08:30:25;;;;;;;1.00;0.10;;;;;;;;;;5014007;28;20030;-43
2022/02/20 08:32:50;;;;;;;0.52;0.05;;;;;;;;;;5030665;28;20030;-46
2022/02/20 08:35:15;;;;;;;1.02;0.10;;;;;;;;;;5018135;28;20018;-45
2022/02/20 08:37:43;;;;;;;0.28;0.00;;;;;;;;;;5012941;28;20062;-45
2022/02/20 08:40:08;;;;;;;0.43;0.00;;;;;;;;;;5027670;28;20490;-44
2022/02/20 08:42:34;;;;;;;0.50;0.17;;;;;;;;;;5027902;28;20024;-45
2022/02/20 08:44:59;;;;;;;0.60;0.10;;;;;;;;;;5012126;28;20026;-45
2022/02/20 08:47:24;;;;;;;0.20;0.00;;;;;;;;;;5028959;28;20017;-46
2022/02/20 08:49:49;;;;;;;0.45;0.10;;;;;;;;;;5030837;28;20026;-46
2022/02/20 08:52:14;;;;;;;0.75;0.10;;;;;;;;;;5019797;28;20720;-46
2022/02/20 08:54:40;;;;;;;0.57;0.10;;;;;;;;;;5015395;28;20041;-45
2022/02/20 08:57:08;;;;;;;0.82;0.10;;;;;;;;;;5016492;28;20288;-46
2022/02/20 08:59:33;;;;;;;0.25;0.00;;;;;;;;;;5031391;28;20022;-44
2022/02/20 09:01:58;;;;;;;0.22;0.00;;;;;;;;;;5025979;28;20041;-46
2022/02/20 09:04:23;;;;;;;1.65;0.10;;;;;;;;;;5021436;28;20041;-48
2022/02/20 09:06:51;;;;;;;0.30;0.10;;;;;;;;;;5030025;28;20042;-45
2022/02/20 09:09:16;;;;;;;1.08;0.10;;;;;;;;;;5028806;28;20768;-49
2022/02/20 09:11:41;;;;;;;1.35;0.10;;;;;;;;;;5020237;28;20026;-59
2022/02/20 09:14:07;;;;;;;0.80;0.10;;;;;;;;;;5028281;28;20025;-56
2022/02/20 09:16:32;;;;;;;0.40;0.10;;;;;;;;;;5033204;28;20768;-56
2022/02/20 09:18:57;;;;;;;1.42;0.10;;;;;;;;;;5029784;28;20473;-58
2022/02/20 09:21:22;;;;;;;0.75;0.20;;;;;;;;;;5026658;28;20356;-50
2022/02/20 09:23:48;;;;;;;0.82;0.20;;;;;;;;;;5026623;28;20030;-53
2022/02/20 09:26:13;;;;;;;0.45;0.10;;;;;;;;;;5032278;28;20112;-52
2022/02/20 09:28:39;;;;;;;0.45;0.10;;;;;;;;;;5024265;28;20029;-49
2022/02/20 09:31:04;;;;;;;2.13;0.20;;;;;;;;;;5031595;28;20022;-54
2022/02/20 09:33:29;;;;;;;1.30;0.30;;;;;;;;;;5017311;28;20022;-56
2022/02/20 09:35:54;;;;;;;3.25;0.75;;;;;;;;;;5034284;28;20312;-51
2022/02/20 09:38:19;;;;;;;0.67;0.30;;;;;;;;;;5022331;28;20429;-59
2022/02/20 09:40:45;;;;;;;1.20;0.30;;;;;;;;;;5017830;28;20288;-49
2022/02/20 09:43:14;;;;;;;1.60;0.17;;;;;;;;;;5034761;28;20049;-49
2022/02/20 09:45:43;;;;;;;2.95;0.22;;;;;;;;;;5032916;28;20063;-50
2022/02/20 09:48:09;;;;;;;1.05;0.20;;;;;;;;;;5031334;28;20086;-61
2022/02/20 09:50:34;;;;;;;1.30;0.40;;;;;;;;;;5032150;28;20444;-61
2022/02/20 09:52:59;;;;;;;0.43;0.20;;;;;;;;;;5012473;28;20421;-56
2022/02/20 09:55:24;;;;;;;2.13;0.30;;;;;;;;;;5019714;28;20069;-50
2022/02/20 09:57:50;;;;;;;9.27;0.50;;;;;;;;;;5021402;28;20156;-61
2022/02/20 10:00:15;;;;;;;6.45;0.60;;;;;;;;;;5030671;28;20103;-62
2022/02/20 10:02:42;;;;;;;3.45;0.55;;;;;;;;;;5030486;28;20500;-59
2022/02/20 10:05:14;;;;;;;5.93;0.60;;;;;;;;;;5021092;28;20085;-53
2022/02/20 10:07:40;;;;;;;7.45;0.63;;;;;;;;;;5019137;28;20054;-59
2022/02/20 10:10:06;;;;;;;3.03;0.47;;;;;;;;;;5032140;28;20115;-60
2022/02/20 10:12:32;;;;;;;1.25;0.25;;;;;;;;;;5024790;28;20021;-59
2022/02/20 10:14:57;;;;;;;3.35;0.38;;;;;;;;;;5016042;28;20021;-59
2022/02/20 10:17:25;;;;;;;1.63;0.30;;;;;;;;;;5029992;28;20021;-60
2022/02/20 10:19:54;;;;;;;0.88;0.20;;;;;;;;;;5043267;28;20079;-59
2022/02/20 10:22:41;;;;;;;3.00;0.50;;;;;;;;;;5021261;28;20030;-60
2022/02/20 10:25:10;;;;;;;3.42;0.20;;;;;;;;;;5015785;28;20113;-60
2022/02/20 10:27:46;;;;;;;2.22;0.35;;;;;;;;;;5034731;28;20025;-60
2022/02/20 10:30:16;;;;;;;1.25;0.25;;;;;;;;;;5029186;28;20045;-58
2022/02/20 10:32:41;;;;;;;2.35;0.30;;;;;;;;;;5014077;28;20105;-59
2022/02/20 10:35:08;;;;;;;3.25;0.50;;;;;;;;;;5028634;28;20104;-60
2022/02/20 10:37:33;;;;;;;1.63;0.20;;;;;;;;;;5029211;28;20040;-60
2022/02/20 10:39:58;;;;;;;0.90;0.30;;;;;;;;;;5018809;28;20462;-60
2022/02/20 10:42:26;;;;;;;2.65;0.50;;;;;;;;;;5015863;28;20544;-59
2022/02/20 10:44:53;;;;;;;2.45;0.60;;;;;;;;;;5032934;28;20092;-59
2022/02/20 10:47:20;;;;;;;2.63;0.30;;;;;;;;;;5015345;28;20068;-60
2022/02/20 10:49:45;;;;;;;1.13;0.20;;;;;;;;;;5031648;28;20116;-60
2022/02/20 10:52:20;;;;;;;0.90;0.40;;;;;;;;;;5023921;28;20124;-59
2022/02/20 10:55:04;;;;;;;0.95;0.15;;;;;;;;;;5031259;28;20021;-60
2022/02/20 10:57:33;;;;;;;3.35;0.25;;;;;;;;;;5029597;28;20136;-59
2022/02/20 10:59:58;;;;;;;1.55;0.20;;;;;;;;;;5032845;28;20548;-59
2022/02/20 11:02:23;;;;;;;1.87;0.77;;;;;;;;;;5016357;28;20049;-60
2022/02/20 11:04:48;;;;;;;0.95;0.20;;;;;;;;;;5028188;28;20279;-60
2022/02/20 11:07:16;;;;;;;0.90;0.20;;;;;;;;;;5031400;28;20032;-60
2022/02/20 11:09:42;;;;;;;1.55;0.20;;;;;;;;;;5022523;28;20071;-60
2022/02/20 11:12:07;;;;;;;2.30;0.40;;;;;;;;;;5033166;28;20034;-52
2022/02/20 11:14:33;;;;;;;1.58;0.20;;;;;;;;;;5023879;28;20430;-50
2022/02/20 11:17:00;;;;;;;1.45;0.20;;;;;;;;;;5021502;28;20754;-47
2022/02/20 11:19:28;;;;;;;1.38;0.20;;;;;;;;;;5029340;28;20025;-49
2022/02/20 11:21:58;;;;;;;0.70;0.15;;;;;;;;;;5026911;28;20029;-50
2022/02/20 11:24:25;;;;;;;2.55;0.20;;;;;;;;;;5019377;28;20065;-49
2022/02/20 11:26:51;;;;;;;0.73;0.10;;;;;;;;;;5018257;28;20021;-48
2022/02/20 11:29:16;;;;;;;3.50;0.30;;;;;;;;;;5013811;28;20556;-52
2022/02/20 11:31:43;;;;;;;2.33;0.20;;;;;;;;;;5027154;28;20030;-52
2022/02/20 11:34:09;;;;;;;1.65;0.20;;;;;;;;;;5016527;28;20498;-52
2022/02/20 11:36:34;;;;;;;2.25;0.28;;;;;;;;;;5028479;28;20022;-50
2022/02/20 11:39:07;;;;;;;1.05;0.20;;;;;;;;;;5024684;28;20483;-48
2022/02/20 11:41:32;;;;;;;0.57;0.10;;;;;;;;;;5013135;28;20048;-51
2022/02/20 11:44:11;;;;;;;0.45;0.17;;;;;;;;;;5026270;28;20101;-54
2022/02/20 11:47:06;;;;;;;0.63;0.17;;;;;;;;;;5024411;28;20417;-51
2022/02/20 11:49:31;;;;;;;0.87;0.13;;;;;;;;;;5015964;28;20038;-52
2022/02/20 11:52:06;;;;;;;2.38;0.20;;;;;;;;;;5012087;28;20169;-51
2022/02/20 11:54:34;;;;;;;1.55;0.20;;;;;;;;;;5016910;28;20476;-50
2022/02/20 11:57:25;;;;;;;0.90;0.22;;;;;;;;;;5018693;28;20555;-49
2022/02/20 12:00:03;;;;;;;1.75;0.25;;;;;;;;;;5027492;28;20059;-51
2022/02/20 12:02:29;;;;;;;2.95;0.47;;;;;;;;;;5016152;28;20033;-53
2022/02/20 12:04:54;;;;;;;6.78;3.70;;;;;;;;;;5012960;28;20030;-52
2022/02/20 12:07:28;;;;;;;14.43;11.35;;;;;;;;;;5019169;28;20021;-50
2022/02/20 12:10:12;;;;;;;28.27;23.17;;;;;;;;;;5029631;28;20073;-50
2022/02/20 12:12:37;;;;;;;31.42;28.05;;;;;;;;;;5020517;28;20489;-49
2022/02/20 12:15:21;;;;;;;35.25;31.40;;;;;;;;;;5015333;28;20055;-51
2022/02/20 12:18:03;;;;;;;31.85;28.55;;;;;;;;;;5031754;28;20088;-53
2022/02/20 12:20:49;;;;;;;36.95;33.22;;;;;;;;;;5016623;28;20104;-50
2022/02/20 12:23:34;;;;;;;37.65;33.85;;;;;;;;;;5009911;28;20029;-53
2022/02/20 12:26:19;;;;;;;30.07;26.90;;;;;;;;;;5029879;28;20017;-51
2022/02/20 12:28:44;;;;;;;27.17;24.35;;;;;;;;;;5018823;28;20264;-51
2022/02/20 12:31:10;;;;;;;26.38;23.70;;;;;;;;;;5011751;28;20045;-50
2022/02/20 12:33:36;;;;;;;23.90;21.38;;;;;;;;;;5016771;28;20044;-51
2022/02/20 12:36:02;;;;;;;27.42;24.65;;;;;;;;;;5029187;28;20061;-50
2022/02/20 12:38:27;;;;;;;23.83;21.40;;;;;;;;;;5028802;28;20025;-50
2022/02/20 12:40:53;;;;;;;24.50;21.42;;;;;;;;;;5019451;28;20022;-49
2022/02/20 12:43:18;;;;;;;22.95;20.70;;;;;;;;;;5041306;28;20512;-50
2022/02/20 12:45:45;;;;;;;19.77;17.67;;;;;;;;;;5032832;28;20025;-53
2022/02/20 12:48:11;;;;;;;19.48;17.52;;;;;;;;;;5026430;28;20025;-51
2022/02/20 12:50:43;;;;;;;18.55;16.65;;;;;;;;;;5025219;28;20029;-53
2022/02/20 12:53:09;;;;;;;17.75;16.02;;;;;;;;;;5022035;28;20075;-47
2022/02/20 12:55:35;;;;;;;17.30;15.50;;;;;;;;;;5022016;28;20524;-51
2022/02/20 12:58:04;;;;;;;18.65;16.60;;;;;;;;;;5016270;28;20031;-53
2022/02/20 13:00:38;;;;;;;15.98;14.27;;;;;;;;;;5018799;28;20035;-50
2022/02/20 13:03:08;;;;;;;16.05;14.50;;;;;;;;;;5028281;28;20026;-50
2022/02/20 13:05:34;;;;;;;12.40;11.20;;;;;;;;;;5026402;28;20037;-51
2022/02/20 13:08:00;;;;;;;13.57;12.18;;;;;;;;;;5016601;28;20053;-52
2022/02/20 13:10:32;;;;;;;12.88;11.68;;;;;;;;;;5020637;28;20063;-49
2022/02/20 13:12:59;;;;;;;11.48;10.27;;;;;;;;;;5017608;28;20036;-52
2022/02/20 13:15:24;;;;;;;11.95;10.52;;;;;;;;;;5020444;28;20478;-52
2022/02/20 13:17:52;;;;;;;11.85;10.65;;;;;;;;;;5034221;28;20071;-52
2022/02/20 13:20:24;;;;;;;11.63;10.43;;;;;;;;;;5019205;28;20121;-49
2022/02/20 13:22:49;;;;;;;11.02;9.95;;;;;;;;;;5010440;28;20052;-50
2022/02/20 13:25:16;;;;;;;11.68;10.48;;;;;;;;;;5031571;28;20470;-52
2022/02/20 13:27:45;;;;;;;11.50;10.40;;;;;;;;;;5033905;28;20025;-50
2022/02/20 13:30:10;;;;;;;10.10;9.10;;;;;;;;;;5026786;28;20072;-53
2022/02/20 13:32:36;;;;;;;8.10;7.30;;;;;;;;;;5011025;28;20026;-52
2022/02/20 13:35:04;;;;;;;8.85;8.00;;;;;;;;;;5020841;28;20032;-50
2022/02/20 13:37:29;;;;;;;8.52;7.70;;;;;;;;;;5031090;28;20025;-51
2022/02/20 13:39:54;;;;;;;6.97;6.15;;;;;;;;;;5024363;28;20125;-50
2022/02/20 13:42:20;;;;;;;8.60;7.78;;;;;;;;;;5018185;28;20062;-52
2022/02/20 13:44:45;;;;;;;7.95;7.13;;;;;;;;;;5029882;28;20061;-53
2022/02/20 13:47:11;;;;;;;7.47;6.78;;;;;;;;;;5024222;28;20160;-53
2022/02/20 13:49:46;;;;;;;7.72;7.03;;;;;;;;;;5022022;28;20036;-51
2022/02/20 13:52:20;;;;;;;7.22;6.53;;;;;;;;;;5024170;28;20021;-50
2022/02/20 13:54:46;;;;;;;6.65;6.05;;;;;;;;;;5023629;28;20025;-53
2022/02/20 13:57:22;;;;;;;7.30;6.55;;;;;;;;;;5023290;28;20519;-53
2022/02/20 13:59:48;;;;;;;6.60;6.00;;;;;;;;;;5032396;28;20496;-53
2022/02/20 14:02:13;;;;;;;5.68;5.18;;;;;;;;;;5033746;28;20021;-52
2022/02/20 14:04:41;;;;;;;6.03;5.53;;;;;;;;;;5035036;28;20036;-52
2022/02/20 14:07:11;;;;;;;6.80;6.10;;;;;;;;;;5040576;28;20021;-49
2022/02/20 14:09:40;;;;;;;5.60;4.45;;;;;;;;;;5025224;28;20137;-52
2022/02/20 14:12:08;;;;;;;4.97;3.20;;;;;;;;;;5034468;28;20074;-53
2022/02/20 14:14:33;;;;;;;5.82;5.32;;;;;;;;;;5019231;28;20022;-49
2022/02/20 14:16:58;;;;;;;5.55;5.00;;;;;;;;;;5034459;28;20018;-49
2022/02/20 14:19:24;;;;;;;7.10;4.82;;;;;;;;;;5030129;28;20037;-52
2022/02/20 14:21:54;;;;;;;5.72;4.40;;;;;;;;;;5026924;28;20025;-54
2022/02/20 14:24:19;;;;;;;4.13;3.72;;;;;;;;;;5023269;28;20120;-51
2022/02/20 14:26:44;;;;;;;3.63;3.33;;;;;;;;;;5032164;28;20128;-52
2022/02/20 14:29:11;;;;;;;4.30;3.45;;;;;;;;;;5045151;28;20436;-51
2022/02/20 14:31:37;;;;;;;5.18;3.78;;;;;;;;;;5042625;28;20021;-51
2022/02/20 14:34:03;;;;;;;4.03;3.58;;;;;;;;;;5023348;28;20474;-53
2022/02/20 14:36:29;;;;;;;3.53;3.00;;;;;;;;;;5050148;28;20038;-53